In Rescue
 
Open Full Screen Window  High Contrast Mode
Wind Gusting 00 knots
04
August 09, 2020 6:54 PM EDT
Weather Information
Wind Direction
  100 °
Wind Speed
  04 kt (5 mph)
Wind Gust
  00 kt (0 mph)
Altimeter
29.94 in
Visibility
10 SM
Temperature
24° C
75° F
Dewpoint
20° C
68° F
Humidity
78%
1hr Rain Fall
00.00 in.
24hr Rain Fall
00.00 in.
Sky Condition
Clear
VFR

METAR KMCD 092254Z AUTO 10004KT 10SM CLR 24/20 A2994 RMK AO2 T02350202

FAA Disclaimer: The data displayed is for advisory purposes only and is not to be used for flight planning or operations.